sensor_id;sensor_type;location;lat;lon;timestamp;temperature;humidity
13205;DHT22;6667;52.634;9.226;2023-01-09T00:00:28;7.00;99.90
13205;DHT22;6667;52.634;9.226;2023-01-09T00:02:56;7.10;99.90
13205;DHT22;6667;52.634;9.226;2023-01-09T00:05:23;7.00;99.90
13205;DHT22;6667;52.634;9.226;2023-01-09T00:07:50;7.10;99.90
13205;DHT22;6667;52.634;9.226;2023-01-09T00:10:17;7.20;99.90
13205;DHT22;6667;52.634;9.226;2023-01-09T00:12:43;7.20;99.90
13205;DHT22;6667;52.634;9.226;2023-01-09T00:15:10;7.30;99.90
13205;DHT22;6667;52.634;9.226;2023-01-09T00:17:37;7.40;99.90
13205;DHT22;6667;52.634;9.226;2023-01-09T00:20:06;7.40;99.90
13205;DHT22;6667;52.634;9.226;2023-01-09T00:22:34;7.50;99.90
13205;DHT22;6667;52.634;9.226;2023-01-09T00:25:00;7.40;99.90
13205;DHT22;6667;52.634;9.226;2023-01-09T00:27:29;7.50;99.90
13205;DHT22;6667;52.634;9.226;2023-01-09T00:29:56;7.50;99.90
13205;DHT22;6667;52.634;9.226;2023-01-09T00:32:22;7.50;99.90
13205;DHT22;6667;52.634;9.226;2023-01-09T00:34:49;7.50;99.90
13205;DHT22;6667;52.634;9.226;2023-01-09T00:37:17;7.50;99.90
13205;DHT22;6667;52.634;9.226;2023-01-09T00:39:44;7.40;99.90
13205;DHT22;6667;52.634;9.226;2023-01-09T00:42:12;7.50;99.90
13205;DHT22;6667;52.634;9.226;2023-01-09T00:44:43;7.50;99.90
13205;DHT22;6667;52.634;9.226;2023-01-09T00:47:14;7.50;99.90
13205;DHT22;6667;52.634;9.226;2023-01-09T00:49:43;7.50;99.90
13205;DHT22;6667;52.634;9.226;2023-01-09T00:52:12;7.50;99.90
13205;DHT22;6667;52.634;9.226;2023-01-09T00:54:41;7.50;99.90
13205;DHT22;6667;52.634;9.226;2023-01-09T00:57:11;7.50;99.90
13205;DHT22;6667;52.634;9.226;2023-01-09T00:59:38;7.50;99.90
13205;DHT22;6667;52.634;9.226;2023-01-09T01:02:05;7.60;99.90
13205;DHT22;6667;52.634;9.226;2023-01-09T01:04:32;7.70;99.90
13205;DHT22;6667;52.634;9.226;2023-01-09T01:07:16;7.70;99.90
13205;DHT22;6667;52.634;9.226;2023-01-09T01:10:01;7.60;99.90
13205;DHT22;6667;52.634;9.226;2023-01-09T01:12:29;7.60;99.90
13205;DHT22;6667;52.634;9.226;2023-01-09T01:14:55;7.60;99.90
13205;DHT22;6667;52.634;9.226;2023-01-09T01:17:22;7.60;99.90
13205;DHT22;6667;52.634;9.226;2023-01-09T01:19:49;7.60;99.90
13205;DHT22;6667;52.634;9.226;2023-01-09T01:22:15;7.60;99.90
13205;DHT22;6667;52.634;9.226;2023-01-09T01:24:42;7.60;99.90
13205;DHT22;6667;52.634;9.226;2023-01-09T01:27:10;7.60;99.90
13205;DHT22;6667;52.634;9.226;2023-01-09T01:29:36;7.70;99.90
13205;DHT22;6667;52.634;9.226;2023-01-09T01:32:03;7.80;99.90
13205;DHT22;6667;52.634;9.226;2023-01-09T01:34:30;7.80;99.90
13205;DHT22;6667;52.634;9.226;2023-01-09T01:36:56;7.80;99.90
13205;DHT22;6667;52.634;9.226;2023-01-09T01:39:23;7.90;99.90
13205;DHT22;6667;52.634;9.226;2023-01-09T01:41:49;7.90;99.90
13205;DHT22;6667;52.634;9.226;2023-01-09T01:47:41;8.00;99.90
13205;DHT22;6667;52.634;9.226;2023-01-09T01:50:16;8.00;99.90
13205;DHT22;6667;52.634;9.226;2023-01-09T01:52:46;8.00;99.90
13205;DHT22;6667;52.634;9.226;2023-01-09T01:55:14;8.00;99.90
13205;DHT22;6667;52.634;9.226;2023-01-09T01:57:45;8.00;99.90
13205;DHT22;6667;52.634;9.226;2023-01-09T02:00:12;8.00;99.90
13205;DHT22;6667;52.634;9.226;2023-01-09T02:02:40;8.00;99.90
13205;DHT22;6667;52.634;9.226;2023-01-09T02:05:10;8.00;99.90
13205;DHT22;6667;52.634;9.226;2023-01-09T02:07:37;8.00;99.90
13205;DHT22;6667;52.634;9.226;2023-01-09T02:10:04;8.10;99.90
13205;DHT22;6667;52.634;9.226;2023-01-09T02:12:31;8.10;99.90
13205;DHT22;6667;52.634;9.226;2023-01-09T02:15:00;8.20;99.90
13205;DHT22;6667;52.634;9.226;2023-01-09T02:18:04;8.00;99.90
13205;DHT22;6667;52.634;9.226;2023-01-09T02:20:39;8.00;99.90
13205;DHT22;6667;52.634;9.226;2023-01-09T02:26:48;8.00;99.90
13205;DHT22;6667;52.634;9.226;2023-01-09T02:29:42;7.90;99.90
13205;DHT22;6667;52.634;9.226;2023-01-09T02:32:20;7.90;99.90
13205;DHT22;6667;52.634;9.226;2023-01-09T02:34:59;7.90;99.90
13205;DHT22;6667;52.634;9.226;2023-01-09T02:37:34;7.90;99.90
13205;DHT22;6667;52.634;9.226;2023-01-09T02:40:08;7.90;99.90
13205;DHT22;6667;52.634;9.226;2023-01-09T02:42:39;7.90;99.90
13205;DHT22;6667;52.634;9.226;2023-01-09T02:45:07;7.90;99.90
13205;DHT22;6667;52.634;9.226;2023-01-09T02:47:40;7.80;99.90
13205;DHT22;6667;52.634;9.226;2023-01-09T02:50:11;7.80;99.90
13205;DHT22;6667;52.634;9.226;2023-01-09T02:52:55;7.80;99.90
13205;DHT22;6667;52.634;9.226;2023-01-09T02:55:33;7.80;99.90
13205;DHT22;6667;52.634;9.226;2023-01-09T02:58:07;7.80;99.90
13205;DHT22;6667;52.634;9.226;2023-01-09T03:00:42;7.80;99.90
13205;DHT22;6667;52.634;9.226;2023-01-09T03:03:17;7.80;99.90
13205;DHT22;6667;52.634;9.226;2023-01-09T03:05:51;7.80;99.90
13205;DHT22;6667;52.634;9.226;2023-01-09T03:08:20;7.90;99.90
13205;DHT22;6667;52.634;9.226;2023-01-09T03:10:52;7.90;99.90
13205;DHT22;6667;52.634;9.226;2023-01-09T03:13:23;7.80;99.90
13205;DHT22;6667;52.634;9.226;2023-01-09T03:15:52;7.80;99.90
13205;DHT22;6667;52.634;9.226;2023-01-09T03:18:24;7.80;99.90
13205;DHT22;6667;52.634;9.226;2023-01-09T03:20:52;7.80;99.90
13205;DHT22;6667;52.634;9.226;2023-01-09T03:23:20;7.80;99.90
13205;DHT22;6667;52.634;9.226;2023-01-09T03:25:47;7.70;99.90
13205;DHT22;6667;52.634;9.226;2023-01-09T03:28:20;7.70;99.90
13205;DHT22;6667;52.634;9.226;2023-01-09T03:30:50;7.70;99.90
13205;DHT22;6667;52.634;9.226;2023-01-09T03:33:16;7.60;99.90
13205;DHT22;6667;52.634;9.226;2023-01-09T03:35:44;7.60;99.90
13205;DHT22;6667;52.634;9.226;2023-01-09T03:38:11;7.60;99.90
13205;DHT22;6667;52.634;9.226;2023-01-09T03:40:38;7.50;99.90
13205;DHT22;6667;52.634;9.226;2023-01-09T03:43:04;7.50;99.90
13205;DHT22;6667;52.634;9.226;2023-01-09T03:45:31;7.50;99.90
13205;DHT22;6667;52.634;9.226;2023-01-09T03:47:57;7.40;99.90
13205;DHT22;6667;52.634;9.226;2023-01-09T03:50:24;7.40;99.90
13205;DHT22;6667;52.634;9.226;2023-01-09T03:52:52;7.40;99.90
13205;DHT22;6667;52.634;9.226;2023-01-09T03:55:19;7.40;99.90
13205;DHT22;6667;52.634;9.226;2023-01-09T03:57:45;7.30;99.90
13205;DHT22;6667;52.634;9.226;2023-01-09T04:00:13;7.40;99.90
13205;DHT22;6667;52.634;9.226;2023-01-09T04:02:39;7.30;99.90
13205;DHT22;6667;52.634;9.226;2023-01-09T04:05:07;7.30;99.90
13205;DHT22;6667;52.634;9.226;2023-01-09T04:07:34;7.30;99.90
13205;DHT22;6667;52.634;9.226;2023-01-09T04:10:03;7.20;99.90
13205;DHT22;6667;52.634;9.226;2023-01-09T04:12:30;7.20;99.90
13205;DHT22;6667;52.634;9.226;2023-01-09T04:14:56;7.20;99.90
13205;DHT22;6667;52.634;9.226;2023-01-09T04:17:23;7.20;99.90
13205;DHT22;6667;52.634;9.226;2023-01-09T04:19:49;7.20;99.90
13205;DHT22;6667;52.634;9.226;2023-01-09T04:22:16;7.20;99.90
13205;DHT22;6667;52.634;9.226;2023-01-09T04:24:42;7.10;99.90
13205;DHT22;6667;52.634;9.226;2023-01-09T04:27:10;7.10;99.90
13205;DHT22;6667;52.634;9.226;2023-01-09T04:29:37;7.10;99.90
13205;DHT22;6667;52.634;9.226;2023-01-09T04:32:04;7.10;99.90
13205;DHT22;6667;52.634;9.226;2023-01-09T04:34:31;7.10;99.90
13205;DHT22;6667;52.634;9.226;2023-01-09T04:36:57;7.10;99.90
13205;DHT22;6667;52.634;9.226;2023-01-09T04:39:24;7.10;99.90
13205;DHT22;6667;52.634;9.226;2023-01-09T04:41:50;7.10;99.90
13205;DHT22;6667;52.634;9.226;2023-01-09T04:44:20;7.10;99.90
13205;DHT22;6667;52.634;9.226;2023-01-09T04:46:47;7.10;99.90
13205;DHT22;6667;52.634;9.226;2023-01-09T04:49:14;7.10;99.90
13205;DHT22;6667;52.634;9.226;2023-01-09T04:51:41;7.10;99.90
13205;DHT22;6667;52.634;9.226;2023-01-09T04:54:07;7.10;99.90
13205;DHT22;6667;52.634;9.226;2023-01-09T04:56:35;7.10;99.90
13205;DHT22;6667;52.634;9.226;2023-01-09T04:59:02;7.10;99.90
13205;DHT22;6667;52.634;9.226;2023-01-09T05:01:30;7.10;99.90
13205;DHT22;6667;52.634;9.226;2023-01-09T05:03:56;7.10;99.90
13205;DHT22;6667;52.634;9.226;2023-01-09T05:06:23;7.10;99.90
13205;DHT22;6667;52.634;9.226;2023-01-09T05:08:50;7.10;99.90
13205;DHT22;6667;52.634;9.226;2023-01-09T05:11:17;7.10;99.90
13205;DHT22;6667;52.634;9.226;2023-01-09T05:13:44;7.10;99.90
13205;DHT22;6667;52.634;9.226;2023-01-09T05:16:10;7.10;99.90
13205;DHT22;6667;52.634;9.226;2023-01-09T05:18:38;7.10;99.90
13205;DHT22;6667;52.634;9.226;2023-01-09T05:21:05;7.10;99.90
13205;DHT22;6667;52.634;9.226;2023-01-09T05:23:32;7.10;99.90
13205;DHT22;6667;52.634;9.226;2023-01-09T05:25:58;7.10;99.90
13205;DHT22;6667;52.634;9.226;2023-01-09T05:28:25;7.10;99.90
13205;DHT22;6667;52.634;9.226;2023-01-09T05:30:51;7.10;99.90
13205;DHT22;6667;52.634;9.226;2023-01-09T05:33:18;7.10;99.90
13205;DHT22;6667;52.634;9.226;2023-01-09T05:35:46;7.10;99.90
13205;DHT22;6667;52.634;9.226;2023-01-09T05:38:13;7.20;99.90
13205;DHT22;6667;52.634;9.226;2023-01-09T05:40:39;7.20;99.90
13205;DHT22;6667;52.634;9.226;2023-01-09T05:43:06;7.20;99.90
13205;DHT22;6667;52.634;9.226;2023-01-09T05:45:32;7.20;99.90
13205;DHT22;6667;52.634;9.226;2023-01-09T05:47:59;7.20;99.90
13205;DHT22;6667;52.634;9.226;2023-01-09T05:50:26;7.20;99.90
13205;DHT22;6667;52.634;9.226;2023-01-09T05:52:54;7.20;99.90
13205;DHT22;6667;52.634;9.226;2023-01-09T05:55:21;7.20;99.90
13205;DHT22;6667;52.634;9.226;2023-01-09T05:57:47;7.20;99.90
13205;DHT22;6667;52.634;9.226;2023-01-09T06:00:15;7.20;99.90
13205;DHT22;6667;52.634;9.226;2023-01-09T06:02:42;7.20;99.90
13205;DHT22;6667;52.634;9.226;2023-01-09T06:05:08;7.10;99.90
13205;DHT22;6667;52.634;9.226;2023-01-09T06:07:35;7.10;99.90
13205;DHT22;6667;52.634;9.226;2023-01-09T06:10:07;7.10;99.90
13205;DHT22;6667;52.634;9.226;2023-01-09T06:12:36;7.00;99.90
13205;DHT22;6667;52.634;9.226;2023-01-09T06:15:03;7.00;99.90
13205;DHT22;6667;52.634;9.226;2023-01-09T06:17:30;6.90;99.90
13205;DHT22;6667;52.634;9.226;2023-01-09T06:19:57;6.90;99.90
13205;DHT22;6667;52.634;9.226;2023-01-09T06:22:23;6.90;99.90
13205;DHT22;6667;52.634;9.226;2023-01-09T06:24:50;6.80;99.90
13205;DHT22;6667;52.634;9.226;2023-01-09T06:27:18;6.80;99.90
13205;DHT22;6667;52.634;9.226;2023-01-09T06:29:44;6.80;99.90
13205;DHT22;6667;52.634;9.226;2023-01-09T06:32:11;6.70;99.90
13205;DHT22;6667;52.634;9.226;2023-01-09T06:34:37;6.70;99.90
13205;DHT22;6667;52.634;9.226;2023-01-09T06:37:04;6.70;99.90
13205;DHT22;6667;52.634;9.226;2023-01-09T06:39:31;6.70;99.90
13205;DHT22;6667;52.634;9.226;2023-01-09T06:41:57;6.60;99.90
13205;DHT22;6667;52.634;9.226;2023-01-09T06:44:25;6.60;99.90
13205;DHT22;6667;52.634;9.226;2023-01-09T06:46:52;6.50;99.90
13205;DHT22;6667;52.634;9.226;2023-01-09T06:49:18;6.50;99.90
13205;DHT22;6667;52.634;9.226;2023-01-09T06:51:48;6.50;99.90
13205;DHT22;6667;52.634;9.226;2023-01-09T06:54:14;6.40;99.90
13205;DHT22;6667;52.634;9.226;2023-01-09T06:56:41;6.40;99.90
13205;DHT22;6667;52.634;9.226;2023-01-09T06:59:07;6.30;99.90
13205;DHT22;6667;52.634;9.226;2023-01-09T07:01:35;6.30;99.90
13205;DHT22;6667;52.634;9.226;2023-01-09T07:04:04;6.30;99.90
13205;DHT22;6667;52.634;9.226;2023-01-09T07:06:31;6.30;99.90
13205;DHT22;6667;52.634;9.226;2023-01-09T07:08:58;6.20;99.90
13205;DHT22;6667;52.634;9.226;2023-01-09T07:11:24;6.20;99.90
13205;DHT22;6667;52.634;9.226;2023-01-09T07:13:51;6.10;99.90
13205;DHT22;6667;52.634;9.226;2023-01-09T07:16:18;6.10;99.90
13205;DHT22;6667;52.634;9.226;2023-01-09T07:18:45;6.10;99.90
13205;DHT22;6667;52.634;9.226;2023-01-09T07:21:12;6.10;99.90
13205;DHT22;6667;52.634;9.226;2023-01-09T07:23:39;6.00;99.90
13205;DHT22;6667;52.634;9.226;2023-01-09T07:26:05;6.00;99.90
13205;DHT22;6667;52.634;9.226;2023-01-09T07:28:32;6.00;99.90
13205;DHT22;6667;52.634;9.226;2023-01-09T07:30:59;5.90;99.90
13205;DHT22;6667;52.634;9.226;2023-01-09T07:33:26;5.90;99.90
13205;DHT22;6667;52.634;9.226;2023-01-09T07:35:54;5.90;99.90
13205;DHT22;6667;52.634;9.226;2023-01-09T07:38:21;5.80;99.90
13205;DHT22;6667;52.634;9.226;2023-01-09T07:40:48;5.80;99.90
13205;DHT22;6667;52.634;9.226;2023-01-09T07:43:14;5.80;99.90
13205;DHT22;6667;52.634;9.226;2023-01-09T07:45:41;5.80;99.90
13205;DHT22;6667;52.634;9.226;2023-01-09T07:48:07;5.70;99.90
13205;DHT22;6667;52.634;9.226;2023-01-09T07:50:34;5.70;99.90
13205;DHT22;6667;52.634;9.226;2023-01-09T07:53:02;5.70;99.90
13205;DHT22;6667;52.634;9.226;2023-01-09T07:55:29;5.70;99.90
13205;DHT22;6667;52.634;9.226;2023-01-09T07:57:56;5.70;99.90
13205;DHT22;6667;52.634;9.226;2023-01-09T08:00:22;5.60;99.90
13205;DHT22;6667;52.634;9.226;2023-01-09T08:02:52;5.60;99.90
13205;DHT22;6667;52.634;9.226;2023-01-09T08:05:19;5.70;99.90
13205;DHT22;6667;52.634;9.226;2023-01-09T08:07:46;5.60;99.90
13205;DHT22;6667;52.634;9.226;2023-01-09T08:10:16;5.60;99.90
13205;DHT22;6667;52.634;9.226;2023-01-09T08:12:44;5.70;99.90
13205;DHT22;6667;52.634;9.226;2023-01-09T08:15:11;5.70;99.90
13205;DHT22;6667;52.634;9.226;2023-01-09T08:17:39;5.70;99.90
13205;DHT22;6667;52.634;9.226;2023-01-09T08:20:07;5.80;99.90
13205;DHT22;6667;52.634;9.226;2023-01-09T08:22:35;5.80;99.90
13205;DHT22;6667;52.634;9.226;2023-01-09T08:25:02;5.80;99.90
13205;DHT22;6667;52.634;9.226;2023-01-09T08:27:30;5.80;99.90
13205;DHT22;6667;52.634;9.226;2023-01-09T08:29:56;5.80;99.90
13205;DHT22;6667;52.634;9.226;2023-01-09T08:32:23;5.80;99.90
13205;DHT22;6667;52.634;9.226;2023-01-09T08:34:50;5.80;99.90
13205;DHT22;6667;52.634;9.226;2023-01-09T08:37:17;5.90;99.90
13205;DHT22;6667;52.634;9.226;2023-01-09T08:39:43;5.90;99.90
13205;DHT22;6667;52.634;9.226;2023-01-09T08:42:10;5.90;99.90
13205;DHT22;6667;52.634;9.226;2023-01-09T08:44:56;5.90;99.90
13205;DHT22;6667;52.634;9.226;2023-01-09T08:47:40;5.90;99.90
13205;DHT22;6667;52.634;9.226;2023-01-09T08:50:07;5.90;99.90
13205;DHT22;6667;52.634;9.226;2023-01-09T08:52:34;6.00;99.90
13205;DHT22;6667;52.634;9.226;2023-01-09T08:55:01;6.00;99.90
13205;DHT22;6667;52.634;9.226;2023-01-09T08:57:27;6.00;99.90
13205;DHT22;6667;52.634;9.226;2023-01-09T08:59:55;6.10;99.90
13205;DHT22;6667;52.634;9.226;2023-01-09T09:02:22;6.10;99.90
13205;DHT22;6667;52.634;9.226;2023-01-09T09:04:49;6.20;99.90
13205;DHT22;6667;52.634;9.226;2023-01-09T09:07:17;6.20;99.90
13205;DHT22;6667;52.634;9.226;2023-01-09T09:09:50;6.20;99.90
13205;DHT22;6667;52.634;9.226;2023-01-09T09:12:17;6.30;99.90
13205;DHT22;6667;52.634;9.226;2023-01-09T09:14:44;6.30;99.90
13205;DHT22;6667;52.634;9.226;2023-01-09T09:17:29;6.30;99.90
13205;DHT22;6667;52.634;9.226;2023-01-09T09:30:18;7.30;99.90
13205;DHT22;6667;52.634;9.226;2023-01-09T09:32:46;7.40;99.90
13205;DHT22;6667;52.634;9.226;2023-01-09T09:35:14;7.30;99.90
13205;DHT22;6667;52.634;9.226;2023-01-09T09:37:42;7.00;99.90
13205;DHT22;6667;52.634;9.226;2023-01-09T09:40:14;6.90;99.90
13205;DHT22;6667;52.634;9.226;2023-01-09T09:42:52;6.90;99.90
13205;DHT22;6667;52.634;9.226;2023-01-09T09:45:51;6.90;99.90
13205;DHT22;6667;52.634;9.226;2023-01-09T09:48:30;6.90;99.90
13205;DHT22;6667;52.634;9.226;2023-01-09T09:51:19;6.90;99.90
13205;DHT22;6667;52.634;9.226;2023-01-09T09:53:53;6.90;99.90
13205;DHT22;6667;52.634;9.226;2023-01-09T09:56:24;6.90;99.90
13205;DHT22;6667;52.634;9.226;2023-01-09T09:58:55;6.90;99.90
13205;DHT22;6667;52.634;9.226;2023-01-09T10:01:26;7.00;99.90
13205;DHT22;6667;52.634;9.226;2023-01-09T10:03:57;7.00;99.90
13205;DHT22;6667;52.634;9.226;2023-01-09T10:06:27;7.10;99.90
13205;DHT22;6667;52.634;9.226;2023-01-09T10:09:01;7.30;99.90
13205;DHT22;6667;52.634;9.226;2023-01-09T10:11:35;7.30;99.90
13205;DHT22;6667;52.634;9.226;2023-01-09T10:14:04;7.50;99.90
13205;DHT22;6667;52.634;9.226;2023-01-09T10:16:41;7.80;99.90
13205;DHT22;6667;52.634;9.226;2023-01-09T10:19:27;8.10;99.90
13205;DHT22;6667;52.634;9.226;2023-01-09T10:22:00;8.30;99.90
13205;DHT22;6667;52.634;9.226;2023-01-09T10:24:40;8.50;99.90
13205;DHT22;6667;52.634;9.226;2023-01-09T10:27:28;8.70;99.90
13205;DHT22;6667;52.634;9.226;2023-01-09T10:30:05;8.80;99.90
13205;DHT22;6667;52.634;9.226;2023-01-09T10:32:44;8.90;99.90
13205;DHT22;6667;52.634;9.226;2023-01-09T10:35:31;8.80;99.90
13205;DHT22;6667;52.634;9.226;2023-01-09T10:38:03;8.80;99.90
13205;DHT22;6667;52.634;9.226;2023-01-09T10:40:34;9.00;99.90
13205;DHT22;6667;52.634;9.226;2023-01-09T10:43:08;9.20;99.90
13205;DHT22;6667;52.634;9.226;2023-01-09T10:45:40;9.20;99.90
13205;DHT22;6667;52.634;9.226;2023-01-09T10:48:17;8.90;99.90
13205;DHT22;6667;52.634;9.226;2023-01-09T10:50:47;8.70;99.90
13205;DHT22;6667;52.634;9.226;2023-01-09T10:53:20;8.50;99.90
13205;DHT22;6667;52.634;9.226;2023-01-09T10:55:47;8.50;99.90
13205;DHT22;6667;52.634;9.226;2023-01-09T10:58:18;8.50;99.90
13205;DHT22;6667;52.634;9.226;2023-01-09T11:00:46;8.50;99.90
13205;DHT22;6667;52.634;9.226;2023-01-09T11:03:14;8.50;99.90
13205;DHT22;6667;52.634;9.226;2023-01-09T11:05:41;8.50;99.90
13205;DHT22;6667;52.634;9.226;2023-01-09T11:08:17;8.50;99.90
13205;DHT22;6667;52.634;9.226;2023-01-09T11:10:48;8.50;99.90
13205;DHT22;6667;52.634;9.226;2023-01-09T11:13:19;8.60;99.90
13205;DHT22;6667;52.634;9.226;2023-01-09T11:16:02;8.70;99.90
13205;DHT22;6667;52.634;9.226;2023-01-09T11:18:30;8.70;99.90
13205;DHT22;6667;52.634;9.226;2023-01-09T11:21:11;8.80;99.90
13205;DHT22;6667;52.634;9.226;2023-01-09T11:23:40;9.00;99.90
13205;DHT22;6667;52.634;9.226;2023-01-09T11:26:21;9.20;99.90
13205;DHT22;6667;52.634;9.226;2023-01-09T11:29:04;9.10;99.90
13205;DHT22;6667;52.634;9.226;2023-01-09T11:31:31;9.20;99.90
13205;DHT22;6667;52.634;9.226;2023-01-09T11:33:58;9.20;99.90
13205;DHT22;6667;52.634;9.226;2023-01-09T11:36:25;9.10;99.90
13205;DHT22;6667;52.634;9.226;2023-01-09T11:38:54;9.10;99.90
13205;DHT22;6667;52.634;9.226;2023-01-09T11:41:24;9.20;99.90
13205;DHT22;6667;52.634;9.226;2023-01-09T11:43:54;9.20;99.90
13205;DHT22;6667;52.634;9.226;2023-01-09T11:46:33;9.20;99.90
13205;DHT22;6667;52.634;9.226;2023-01-09T11:49:04;9.30;99.90
13205;DHT22;6667;52.634;9.226;2023-01-09T11:51:32;9.40;99.90
13205;DHT22;6667;52.634;9.226;2023-01-09T11:54:14;9.40;99.90
13205;DHT22;6667;52.634;9.226;2023-01-09T11:56:41;9.40;99.90
13205;DHT22;6667;52.634;9.226;2023-01-09T11:59:10;9.30;99.90
13205;DHT22;6667;52.634;9.226;2023-01-09T12:04:40;9.30;99.90
13205;DHT22;6667;52.634;9.226;2023-01-09T12:07:22;9.30;99.90
13205;DHT22;6667;52.634;9.226;2023-01-09T12:09:58;9.30;99.90
13205;DHT22;6667;52.634;9.226;2023-01-09T12:12:32;9.20;99.90
13205;DHT22;6667;52.634;9.226;2023-01-09T12:15:20;9.10;99.90
13205;DHT22;6667;52.634;9.226;2023-01-09T12:21:01;9.00;99.90
13205;DHT22;6667;52.634;9.226;2023-01-09T12:23:48;8.90;99.90
13205;DHT22;6667;52.634;9.226;2023-01-09T12:26:23;8.90;99.90
13205;DHT22;6667;52.634;9.226;2023-01-09T12:29:00;8.80;99.90
13205;DHT22;6667;52.634;9.226;2023-01-09T12:31:41;8.80;99.90
13205;DHT22;6667;52.634;9.226;2023-01-09T12:34:24;8.80;99.90
13205;DHT22;6667;52.634;9.226;2023-01-09T12:37:01;8.80;99.90
13205;DHT22;6667;52.634;9.226;2023-01-09T12:39:38;8.80;99.90
13205;DHT22;6667;52.634;9.226;2023-01-09T12:42:18;8.80;99.90
13205;DHT22;6667;52.634;9.226;2023-01-09T12:44:50;8.70;99.90
13205;DHT22;6667;52.634;9.226;2023-01-09T12:47:41;8.80;99.90
13205;DHT22;6667;52.634;9.226;2023-01-09T12:53:10;8.70;99.90
13205;DHT22;6667;52.634;9.226;2023-01-09T12:55:42;8.70;99.90
13205;DHT22;6667;52.634;9.226;2023-01-09T12:58:25;8.70;99.90
13205;DHT22;6667;52.634;9.226;2023-01-09T13:00:53;8.70;99.90
13205;DHT22;6667;52.634;9.226;2023-01-09T13:03:27;8.70;99.90
13205;DHT22;6667;52.634;9.226;2023-01-09T13:05:57;8.60;99.90
13205;DHT22;6667;52.634;9.226;2023-01-09T13:08:28;8.60;99.90
13205;DHT22;6667;52.634;9.226;2023-01-09T13:11:00;8.60;99.90
13205;DHT22;6667;52.634;9.226;2023-01-09T13:13:34;8.60;99.90
13205;DHT22;6667;52.634;9.226;2023-01-09T13:16:05;8.60;99.90
13205;DHT22;6667;52.634;9.226;2023-01-09T13:18:38;8.50;99.90
13205;DHT22;6667;52.634;9.226;2023-01-09T13:21:08;8.50;99.90
13205;DHT22;6667;52.634;9.226;2023-01-09T13:23:42;8.50;99.90
13205;DHT22;6667;52.634;9.226;2023-01-09T13:26:15;8.50;99.90
13205;DHT22;6667;52.634;9.226;2023-01-09T13:28:45;8.60;99.90
13205;DHT22;6667;52.634;9.226;2023-01-09T13:31:32;8.60;99.90
13205;DHT22;6667;52.634;9.226;2023-01-09T13:34:08;8.60;99.90
13205;DHT22;6667;52.634;9.226;2023-01-09T13:36:38;8.50;99.90
13205;DHT22;6667;52.634;9.226;2023-01-09T13:39:05;8.50;99.90
13205;DHT22;6667;52.634;9.226;2023-01-09T13:41:32;8.40;99.90
13205;DHT22;6667;52.634;9.226;2023-01-09T13:44:30;8.40;99.90
13205;DHT22;6667;52.634;9.226;2023-01-09T13:46:58;8.30;99.90
13205;DHT22;6667;52.634;9.226;2023-01-09T13:49:30;8.20;99.90
13205;DHT22;6667;52.634;9.226;2023-01-09T13:52:02;8.20;99.90
13205;DHT22;6667;52.634;9.226;2023-01-09T13:58:17;8.10;99.90
13205;DHT22;6667;52.634;9.226;2023-01-09T14:00:59;8.10;99.90
13205;DHT22;6667;52.634;9.226;2023-01-09T14:03:29;8.00;99.90
13205;DHT22;6667;52.634;9.226;2023-01-09T14:06:18;8.00;99.90
13205;DHT22;6667;52.634;9.226;2023-01-09T14:08:46;8.00;99.90
13205;DHT22;6667;52.634;9.226;2023-01-09T14:11:22;8.10;99.90
13205;DHT22;6667;52.634;9.226;2023-01-09T14:14:01;8.00;99.90
13205;DHT22;6667;52.634;9.226;2023-01-09T14:16:30;8.00;99.90
13205;DHT22;6667;52.634;9.226;2023-01-09T14:19:02;8.00;99.90
13205;DHT22;6667;52.634;9.226;2023-01-09T14:21:44;8.00;99.90
13205;DHT22;6667;52.634;9.226;2023-01-09T14:24:19;8.00;99.90
13205;DHT22;6667;52.634;9.226;2023-01-09T14:26:49;8.00;99.90
13205;DHT22;6667;52.634;9.226;2023-01-09T14:29:42;7.90;99.90
13205;DHT22;6667;52.634;9.226;2023-01-09T14:32:39;7.90;99.90
13205;DHT22;6667;52.634;9.226;2023-01-09T14:35:13;7.90;99.90
13205;DHT22;6667;52.634;9.226;2023-01-09T14:37:42;7.90;99.90
13205;DHT22;6667;52.634;9.226;2023-01-09T14:40:18;7.80;99.90
13205;DHT22;6667;52.634;9.226;2023-01-09T14:42:49;7.80;99.90
13205;DHT22;6667;52.634;9.226;2023-01-09T14:45:19;7.80;99.90
13205;DHT22;6667;52.634;9.226;2023-01-09T14:47:52;7.80;99.90
13205;DHT22;6667;52.634;9.226;2023-01-09T14:50:25;7.80;99.90
13205;DHT22;6667;52.634;9.226;2023-01-09T14:52:58;7.70;99.90
13205;DHT22;6667;52.634;9.226;2023-01-09T14:55:30;7.70;99.90
13205;DHT22;6667;52.634;9.226;2023-01-09T14:58:09;7.70;99.90
13205;DHT22;6667;52.634;9.226;2023-01-09T15:00:36;7.70;99.90
13205;DHT22;6667;52.634;9.226;2023-01-09T15:03:12;7.60;99.90
13205;DHT22;6667;52.634;9.226;2023-01-09T15:05:39;7.60;99.90
13205;DHT22;6667;52.634;9.226;2023-01-09T15:08:06;7.60;99.90
13205;DHT22;6667;52.634;9.226;2023-01-09T15:10:36;7.50;99.90
13205;DHT22;6667;52.634;9.226;2023-01-09T15:13:05;7.50;99.90
13205;DHT22;6667;52.634;9.226;2023-01-09T15:15:34;7.50;99.90
13205;DHT22;6667;52.634;9.226;2023-01-09T15:18:02;7.50;99.90
13205;DHT22;6667;52.634;9.226;2023-01-09T15:20:32;7.40;99.90
13205;DHT22;6667;52.634;9.226;2023-01-09T15:23:00;7.40;99.90
13205;DHT22;6667;52.634;9.226;2023-01-09T15:25:29;7.40;99.90
13205;DHT22;6667;52.634;9.226;2023-01-09T15:27:58;7.30;99.90
13205;DHT22;6667;52.634;9.226;2023-01-09T15:30:26;7.30;99.90
13205;DHT22;6667;52.634;9.226;2023-01-09T15:32:59;7.30;99.90
13205;DHT22;6667;52.634;9.226;2023-01-09T15:35:27;7.20;99.90
13205;DHT22;6667;52.634;9.226;2023-01-09T15:37:55;7.20;99.90
13205;DHT22;6667;52.634;9.226;2023-01-09T15:40:27;7.20;99.90
13205;DHT22;6667;52.634;9.226;2023-01-09T15:42:57;7.20;99.90
13205;DHT22;6667;52.634;9.226;2023-01-09T15:45:26;7.20;99.90
13205;DHT22;6667;52.634;9.226;2023-01-09T15:48:14;7.10;99.90
13205;DHT22;6667;52.634;9.226;2023-01-09T15:50:41;7.10;99.90
13205;DHT22;6667;52.634;9.226;2023-01-09T15:53:11;7.10;99.90
13205;DHT22;6667;52.634;9.226;2023-01-09T15:55:39;7.10;99.90
13205;DHT22;6667;52.634;9.226;2023-01-09T15:58:24;7.10;99.90
13205;DHT22;6667;52.634;9.226;2023-01-09T16:00:54;7.10;99.90
13205;DHT22;6667;52.634;9.226;2023-01-09T16:03:22;7.10;99.90
13205;DHT22;6667;52.634;9.226;2023-01-09T16:05:51;7.10;99.90
13205;DHT22;6667;52.634;9.226;2023-01-09T16:08:24;7.00;99.90
13205;DHT22;6667;52.634;9.226;2023-01-09T16:10:52;7.00;99.90
13205;DHT22;6667;52.634;9.226;2023-01-09T16:13:21;7.10;99.90
13205;DHT22;6667;52.634;9.226;2023-01-09T16:15:49;7.10;99.90
13205;DHT22;6667;52.634;9.226;2023-01-09T16:18:22;7.10;99.90
13205;DHT22;6667;52.634;9.226;2023-01-09T16:21:00;7.00;99.90
13205;DHT22;6667;52.634;9.226;2023-01-09T16:23:31;7.00;99.90
13205;DHT22;6667;52.634;9.226;2023-01-09T16:26:03;7.00;99.90
13205;DHT22;6667;52.634;9.226;2023-01-09T16:28:30;7.00;99.90
13205;DHT22;6667;52.634;9.226;2023-01-09T16:30:58;7.00;99.90
13205;DHT22;6667;52.634;9.226;2023-01-09T16:33:27;7.00;99.90
13205;DHT22;6667;52.634;9.226;2023-01-09T16:35:54;7.00;99.90
13205;DHT22;6667;52.634;9.226;2023-01-09T16:38:23;7.00;99.90
13205;DHT22;6667;52.634;9.226;2023-01-09T16:41:02;7.00;99.90
13205;DHT22;6667;52.634;9.226;2023-01-09T16:43:47;7.00;99.90
13205;DHT22;6667;52.634;9.226;2023-01-09T16:46:16;7.00;99.90
13205;DHT22;6667;52.634;9.226;2023-01-09T16:48:43;7.00;99.90
13205;DHT22;6667;52.634;9.226;2023-01-09T16:51:14;7.00;99.90
13205;DHT22;6667;52.634;9.226;2023-01-09T16:53:41;7.00;99.90